sensor_id;sensor_type;location;lat;lon;timestamp;P1;durP1;ratioP1;P2;durP2;ratioP2
10333;SDS011;5212;47.892;16.406;2024-02-28T00:01:22;3.83;;;2.33;;
10333;SDS011;5212;47.892;16.406;2024-02-28T00:03:48;3.10;;;1.90;;
10333;SDS011;5212;47.892;16.406;2024-02-28T00:06:15;2.70;;;1.90;;
10333;SDS011;5212;47.892;16.406;2024-02-28T00:08:41;3.07;;;1.90;;
10333;SDS011;5212;47.892;16.406;2024-02-28T00:11:07;3.37;;;2.07;;
10333;SDS011;5212;47.892;16.406;2024-02-28T00:13:34;3.53;;;2.10;;
10333;SDS011;5212;47.892;16.406;2024-02-28T00:16:00;4.73;;;2.10;;
10333;SDS011;5212;47.892;16.406;2024-02-28T00:18:26;3.20;;;2.27;;
10333;SDS011;5212;47.892;16.406;2024-02-28T00:20:52;3.50;;;2.27;;
10333;SDS011;5212;47.892;16.406;2024-02-28T00:23:19;3.20;;;1.77;;
10333;SDS011;5212;47.892;16.406;2024-02-28T00:25:45;1.93;;;1.73;;
10333;SDS011;5212;47.892;16.406;2024-02-28T00:28:12;2.60;;;1.70;;
10333;SDS011;5212;47.892;16.406;2024-02-28T00:30:38;2.87;;;2.10;;
10333;SDS011;5212;47.892;16.406;2024-02-28T00:33:06;2.50;;;1.80;;
10333;SDS011;5212;47.892;16.406;2024-02-28T00:35:32;4.03;;;1.90;;
10333;SDS011;5212;47.892;16.406;2024-02-28T00:37:58;3.57;;;1.90;;
10333;SDS011;5212;47.892;16.406;2024-02-28T00:40:24;4.43;;;1.93;;
10333;SDS011;5212;47.892;16.406;2024-02-28T00:42:51;5.93;;;1.80;;
10333;SDS011;5212;47.892;16.406;2024-02-28T00:45:16;3.40;;;2.03;;
10333;SDS011;5212;47.892;16.406;2024-02-28T00:47:43;2.27;;;1.40;;
10333;SDS011;5212;47.892;16.406;2024-02-28T00:50:09;2.20;;;1.50;;
10333;SDS011;5212;47.892;16.406;2024-02-28T00:52:36;3.90;;;1.80;;
10333;SDS011;5212;47.892;16.406;2024-02-28T00:55:02;1.70;;;1.40;;
10333;SDS011;5212;47.892;16.406;2024-02-28T00:57:30;2.60;;;1.97;;
10333;SDS011;5212;47.892;16.406;2024-02-28T00:59:56;3.57;;;1.70;;
10333;SDS011;5212;47.892;16.406;2024-02-28T01:02:22;6.03;;;1.93;;
10333;SDS011;5212;47.892;16.406;2024-02-28T01:04:49;3.43;;;1.70;;
10333;SDS011;5212;47.892;16.406;2024-02-28T01:07:15;3.10;;;1.97;;
10333;SDS011;5212;47.892;16.406;2024-02-28T01:09:41;2.63;;;1.60;;
10333;SDS011;5212;47.892;16.406;2024-02-28T01:12:07;3.07;;;1.60;;
10333;SDS011;5212;47.892;16.406;2024-02-28T01:14:33;2.30;;;1.40;;
10333;SDS011;5212;47.892;16.406;2024-02-28T01:16:59;3.17;;;1.57;;
10333;SDS011;5212;47.892;16.406;2024-02-28T01:19:25;2.43;;;1.50;;
10333;SDS011;5212;47.892;16.406;2024-02-28T01:21:52;4.97;;;1.80;;
10333;SDS011;5212;47.892;16.406;2024-02-28T01:24:17;3.47;;;1.50;;
10333;SDS011;5212;47.892;16.406;2024-02-28T01:26:43;3.13;;;1.97;;
10333;SDS011;5212;47.892;16.406;2024-02-28T01:29:09;3.77;;;1.80;;
10333;SDS011;5212;47.892;16.406;2024-02-28T01:31:35;2.80;;;1.77;;
10333;SDS011;5212;47.892;16.406;2024-02-28T01:34:01;4.37;;;1.90;;
10333;SDS011;5212;47.892;16.406;2024-02-28T01:36:27;4.57;;;1.70;;
10333;SDS011;5212;47.892;16.406;2024-02-28T01:38:54;4.90;;;1.90;;
10333;SDS011;5212;47.892;16.406;2024-02-28T01:41:20;3.37;;;2.10;;
10333;SDS011;5212;47.892;16.406;2024-02-28T01:43:46;3.40;;;1.63;;
10333;SDS011;5212;47.892;16.406;2024-02-28T01:46:16;3.80;;;1.80;;
10333;SDS011;5212;47.892;16.406;2024-02-28T01:48:47;2.50;;;1.53;;
10333;SDS011;5212;47.892;16.406;2024-02-28T01:51:13;2.97;;;1.80;;
10333;SDS011;5212;47.892;16.406;2024-02-28T01:53:39;3.60;;;1.67;;
10333;SDS011;5212;47.892;16.406;2024-02-28T01:56:06;3.77;;;2.10;;
10333;SDS011;5212;47.892;16.406;2024-02-28T01:58:32;3.47;;;2.07;;
10333;SDS011;5212;47.892;16.406;2024-02-28T02:00:59;4.87;;;2.20;;
10333;SDS011;5212;47.892;16.406;2024-02-28T02:03:25;4.60;;;2.17;;
10333;SDS011;5212;47.892;16.406;2024-02-28T02:05:51;3.87;;;1.90;;
10333;SDS011;5212;47.892;16.406;2024-02-28T02:08:17;2.23;;;1.57;;
10333;SDS011;5212;47.892;16.406;2024-02-28T02:10:43;4.03;;;1.87;;
10333;SDS011;5212;47.892;16.406;2024-02-28T02:13:10;3.20;;;1.80;;
10333;SDS011;5212;47.892;16.406;2024-02-28T02:15:36;4.87;;;1.63;;
10333;SDS011;5212;47.892;16.406;2024-02-28T02:18:03;2.20;;;1.70;;
10333;SDS011;5212;47.892;16.406;2024-02-28T02:20:30;5.60;;;1.93;;
10333;SDS011;5212;47.892;16.406;2024-02-28T02:22:58;3.80;;;1.50;;
10333;SDS011;5212;47.892;16.406;2024-02-28T02:25:24;2.93;;;1.83;;
10333;SDS011;5212;47.892;16.406;2024-02-28T02:27:50;2.30;;;1.60;;
10333;SDS011;5212;47.892;16.406;2024-02-28T02:30:16;5.27;;;1.60;;
10333;SDS011;5212;47.892;16.406;2024-02-28T02:32:42;5.47;;;2.00;;
10333;SDS011;5212;47.892;16.406;2024-02-28T02:35:08;3.37;;;2.23;;
10333;SDS011;5212;47.892;16.406;2024-02-28T02:37:34;6.00;;;2.33;;
10333;SDS011;5212;47.892;16.406;2024-02-28T02:40:01;3.03;;;1.90;;
10333;SDS011;5212;47.892;16.406;2024-02-28T02:42:27;2.40;;;1.40;;
10333;SDS011;5212;47.892;16.406;2024-02-28T02:44:53;4.50;;;2.40;;
10333;SDS011;5212;47.892;16.406;2024-02-28T02:47:19;6.43;;;1.90;;
10333;SDS011;5212;47.892;16.406;2024-02-28T02:49:45;3.33;;;1.90;;
10333;SDS011;5212;47.892;16.406;2024-02-28T02:52:11;2.80;;;1.80;;
10333;SDS011;5212;47.892;16.406;2024-02-28T02:54:37;3.40;;;2.23;;
10333;SDS011;5212;47.892;16.406;2024-02-28T02:57:04;3.60;;;1.60;;
10333;SDS011;5212;47.892;16.406;2024-02-28T02:59:30;2.10;;;1.60;;
10333;SDS011;5212;47.892;16.406;2024-02-28T03:01:56;2.83;;;1.73;;
10333;SDS011;5212;47.892;16.406;2024-02-28T03:04:22;4.87;;;2.40;;
10333;SDS011;5212;47.892;16.406;2024-02-28T03:06:48;3.43;;;2.10;;
10333;SDS011;5212;47.892;16.406;2024-02-28T03:09:14;2.90;;;1.87;;
10333;SDS011;5212;47.892;16.406;2024-02-28T03:11:40;2.60;;;1.50;;
10333;SDS011;5212;47.892;16.406;2024-02-28T03:14:06;2.90;;;1.90;;
10333;SDS011;5212;47.892;16.406;2024-02-28T03:16:32;3.00;;;2.10;;
10333;SDS011;5212;47.892;16.406;2024-02-28T03:19:02;2.43;;;1.63;;
10333;SDS011;5212;47.892;16.406;2024-02-28T03:21:28;4.30;;;2.10;;
10333;SDS011;5212;47.892;16.406;2024-02-28T03:23:54;3.87;;;2.03;;
10333;SDS011;5212;47.892;16.406;2024-02-28T03:26:20;2.73;;;1.60;;
10333;SDS011;5212;47.892;16.406;2024-02-28T03:28:46;2.50;;;1.43;;
10333;SDS011;5212;47.892;16.406;2024-02-28T03:31:12;3.87;;;1.53;;
10333;SDS011;5212;47.892;16.406;2024-02-28T03:33:38;2.03;;;1.43;;
10333;SDS011;5212;47.892;16.406;2024-02-28T03:36:05;2.57;;;1.43;;
10333;SDS011;5212;47.892;16.406;2024-02-28T03:38:31;2.20;;;1.60;;
10333;SDS011;5212;47.892;16.406;2024-02-28T03:40:57;2.63;;;1.50;;
10333;SDS011;5212;47.892;16.406;2024-02-28T03:43:23;2.90;;;1.33;;
10333;SDS011;5212;47.892;16.406;2024-02-28T03:45:49;2.57;;;1.77;;
10333;SDS011;5212;47.892;16.406;2024-02-28T03:48:16;2.33;;;1.73;;
10333;SDS011;5212;47.892;16.406;2024-02-28T03:50:42;2.20;;;1.57;;
10333;SDS011;5212;47.892;16.406;2024-02-28T03:53:08;4.07;;;1.47;;
10333;SDS011;5212;47.892;16.406;2024-02-28T03:55:34;2.07;;;1.40;;
10333;SDS011;5212;47.892;16.406;2024-02-28T03:58:00;2.63;;;1.50;;
10333;SDS011;5212;47.892;16.406;2024-02-28T04:00:26;2.60;;;1.57;;
10333;SDS011;5212;47.892;16.406;2024-02-28T04:02:51;3.13;;;1.60;;
10333;SDS011;5212;47.892;16.406;2024-02-28T04:05:18;2.13;;;1.43;;
10333;SDS011;5212;47.892;16.406;2024-02-28T04:07:44;1.53;;;1.20;;
10333;SDS011;5212;47.892;16.406;2024-02-28T04:10:10;2.97;;;1.67;;
10333;SDS011;5212;47.892;16.406;2024-02-28T04:12:37;4.13;;;1.77;;
10333;SDS011;5212;47.892;16.406;2024-02-28T04:15:03;2.60;;;1.80;;
10333;SDS011;5212;47.892;16.406;2024-02-28T04:17:30;4.23;;;1.53;;
10333;SDS011;5212;47.892;16.406;2024-02-28T04:19:56;3.13;;;2.00;;
10333;SDS011;5212;47.892;16.406;2024-02-28T04:22:23;3.33;;;1.90;;
10333;SDS011;5212;47.892;16.406;2024-02-28T04:24:49;2.30;;;1.67;;
10333;SDS011;5212;47.892;16.406;2024-02-28T04:27:15;6.37;;;2.20;;
10333;SDS011;5212;47.892;16.406;2024-02-28T04:29:41;6.03;;;2.63;;
10333;SDS011;5212;47.892;16.406;2024-02-28T04:32:07;5.10;;;2.90;;
10333;SDS011;5212;47.892;16.406;2024-02-28T04:34:33;3.90;;;2.40;;
10333;SDS011;5212;47.892;16.406;2024-02-28T04:36:59;4.13;;;2.30;;
10333;SDS011;5212;47.892;16.406;2024-02-28T04:39:25;4.83;;;2.00;;
10333;SDS011;5212;47.892;16.406;2024-02-28T04:41:51;5.13;;;2.60;;
10333;SDS011;5212;47.892;16.406;2024-02-28T04:44:17;3.67;;;2.17;;
10333;SDS011;5212;47.892;16.406;2024-02-28T04:46:43;2.77;;;1.80;;
10333;SDS011;5212;47.892;16.406;2024-02-28T04:49:09;3.07;;;2.10;;
10333;SDS011;5212;47.892;16.406;2024-02-28T04:51:35;4.07;;;2.30;;
10333;SDS011;5212;47.892;16.406;2024-02-28T04:54:01;6.33;;;2.37;;
10333;SDS011;5212;47.892;16.406;2024-02-28T04:56:28;3.70;;;2.27;;
10333;SDS011;5212;47.892;16.406;2024-02-28T04:58:54;4.03;;;2.40;;
10333;SDS011;5212;47.892;16.406;2024-02-28T05:01:20;5.60;;;2.03;;
10333;SDS011;5212;47.892;16.406;2024-02-28T05:03:46;3.90;;;2.37;;
10333;SDS011;5212;47.892;16.406;2024-02-28T05:06:12;3.30;;;2.00;;
10333;SDS011;5212;47.892;16.406;2024-02-28T05:08:38;2.50;;;2.00;;
10333;SDS011;5212;47.892;16.406;2024-02-28T05:11:04;4.57;;;2.33;;
10333;SDS011;5212;47.892;16.406;2024-02-28T05:13:30;3.23;;;2.10;;
10333;SDS011;5212;47.892;16.406;2024-02-28T05:15:56;4.87;;;2.10;;
10333;SDS011;5212;47.892;16.406;2024-02-28T05:18:22;6.43;;;2.80;;
10333;SDS011;5212;47.892;16.406;2024-02-28T05:20:48;5.57;;;2.77;;
10333;SDS011;5212;47.892;16.406;2024-02-28T05:23:14;6.67;;;2.87;;
10333;SDS011;5212;47.892;16.406;2024-02-28T05:25:40;4.20;;;2.77;;
10333;SDS011;5212;47.892;16.406;2024-02-28T05:28:06;4.30;;;2.60;;
10333;SDS011;5212;47.892;16.406;2024-02-28T05:30:33;7.53;;;3.37;;
10333;SDS011;5212;47.892;16.406;2024-02-28T05:32:59;5.13;;;3.50;;
10333;SDS011;5212;47.892;16.406;2024-02-28T05:35:25;7.10;;;4.17;;
10333;SDS011;5212;47.892;16.406;2024-02-28T05:37:52;6.77;;;4.33;;
10333;SDS011;5212;47.892;16.406;2024-02-28T05:40:19;5.80;;;4.23;;
10333;SDS011;5212;47.892;16.406;2024-02-28T05:42:45;7.97;;;5.23;;
10333;SDS011;5212;47.892;16.406;2024-02-28T05:45:11;9.83;;;4.80;;
10333;SDS011;5212;47.892;16.406;2024-02-28T05:47:38;12.10;;;6.27;;
10333;SDS011;5212;47.892;16.406;2024-02-28T05:50:04;10.10;;;6.17;;
10333;SDS011;5212;47.892;16.406;2024-02-28T05:52:31;9.50;;;6.00;;
10333;SDS011;5212;47.892;16.406;2024-02-28T05:54:57;9.57;;;6.43;;
10333;SDS011;5212;47.892;16.406;2024-02-28T05:57:23;9.20;;;6.07;;
10333;SDS011;5212;47.892;16.406;2024-02-28T05:59:49;13.63;;;7.80;;
10333;SDS011;5212;47.892;16.406;2024-02-28T06:02:15;12.43;;;6.37;;
10333;SDS011;5212;47.892;16.406;2024-02-28T06:04:42;17.40;;;8.10;;
10333;SDS011;5212;47.892;16.406;2024-02-28T06:07:08;11.10;;;6.63;;
10333;SDS011;5212;47.892;16.406;2024-02-28T06:09:34;11.07;;;6.60;;
10333;SDS011;5212;47.892;16.406;2024-02-28T06:11:59;11.40;;;6.87;;
10333;SDS011;5212;47.892;16.406;2024-02-28T06:14:27;11.80;;;6.40;;
10333;SDS011;5212;47.892;16.406;2024-02-28T06:16:53;11.33;;;6.97;;
10333;SDS011;5212;47.892;16.406;2024-02-28T06:19:19;15.77;;;9.73;;
10333;SDS011;5212;47.892;16.406;2024-02-28T06:21:46;12.23;;;7.03;;
10333;SDS011;5212;47.892;16.406;2024-02-28T06:24:12;14.07;;;8.47;;
10333;SDS011;5212;47.892;16.406;2024-02-28T06:26:38;12.83;;;7.50;;
10333;SDS011;5212;47.892;16.406;2024-02-28T06:29:04;14.50;;;8.87;;
10333;SDS011;5212;47.892;16.406;2024-02-28T06:31:31;10.40;;;7.33;;
10333;SDS011;5212;47.892;16.406;2024-02-28T06:33:57;13.53;;;8.70;;
10333;SDS011;5212;47.892;16.406;2024-02-28T06:36:23;10.97;;;7.47;;
10333;SDS011;5212;47.892;16.406;2024-02-28T06:38:50;13.93;;;8.83;;
10333;SDS011;5212;47.892;16.406;2024-02-28T06:41:16;11.90;;;7.60;;
10333;SDS011;5212;47.892;16.406;2024-02-28T06:43:42;15.10;;;9.47;;
10333;SDS011;5212;47.892;16.406;2024-02-28T06:46:08;12.30;;;8.43;;
10333;SDS011;5212;47.892;16.406;2024-02-28T06:48:34;17.73;;;8.83;;
10333;SDS011;5212;47.892;16.406;2024-02-28T06:51:00;12.53;;;7.90;;
10333;SDS011;5212;47.892;16.406;2024-02-28T06:53:26;15.17;;;9.03;;
10333;SDS011;5212;47.892;16.406;2024-02-28T06:55:53;17.63;;;10.73;;
10333;SDS011;5212;47.892;16.406;2024-02-28T06:58:19;13.97;;;8.77;;
10333;SDS011;5212;47.892;16.406;2024-02-28T07:00:45;12.73;;;8.27;;
10333;SDS011;5212;47.892;16.406;2024-02-28T07:03:12;14.77;;;8.43;;
10333;SDS011;5212;47.892;16.406;2024-02-28T07:05:38;13.93;;;8.80;;
10333;SDS011;5212;47.892;16.406;2024-02-28T07:08:04;11.00;;;7.77;;
10333;SDS011;5212;47.892;16.406;2024-02-28T07:10:30;12.73;;;8.33;;
10333;SDS011;5212;47.892;16.406;2024-02-28T07:12:57;16.43;;;9.87;;
10333;SDS011;5212;47.892;16.406;2024-02-28T07:15:23;12.27;;;7.60;;
10333;SDS011;5212;47.892;16.406;2024-02-28T07:17:49;15.60;;;8.70;;
10333;SDS011;5212;47.892;16.406;2024-02-28T07:20:15;14.37;;;9.10;;
10333;SDS011;5212;47.892;16.406;2024-02-28T07:22:42;12.67;;;8.47;;
10333;SDS011;5212;47.892;16.406;2024-02-28T07:25:08;15.33;;;9.10;;
10333;SDS011;5212;47.892;16.406;2024-02-28T07:27:34;17.17;;;8.57;;
10333;SDS011;5212;47.892;16.406;2024-02-28T07:30:01;14.83;;;7.60;;
10333;SDS011;5212;47.892;16.406;2024-02-28T07:32:28;16.50;;;9.27;;
10333;SDS011;5212;47.892;16.406;2024-02-28T07:34:57;12.67;;;8.23;;
10333;SDS011;5212;47.892;16.406;2024-02-28T07:37:23;12.43;;;8.27;;
10333;SDS011;5212;47.892;16.406;2024-02-28T07:39:49;18.47;;;10.07;;
10333;SDS011;5212;47.892;16.406;2024-02-28T07:42:15;14.07;;;8.60;;
10333;SDS011;5212;47.892;16.406;2024-02-28T07:44:41;12.40;;;8.23;;
10333;SDS011;5212;47.892;16.406;2024-02-28T07:47:07;14.70;;;8.70;;
10333;SDS011;5212;47.892;16.406;2024-02-28T07:49:33;16.87;;;9.10;;
10333;SDS011;5212;47.892;16.406;2024-02-28T07:51:59;15.40;;;8.43;;
10333;SDS011;5212;47.892;16.406;2024-02-28T07:54:25;12.80;;;8.07;;
10333;SDS011;5212;47.892;16.406;2024-02-28T07:56:52;16.50;;;9.77;;
10333;SDS011;5212;47.892;16.406;2024-02-28T07:59:18;14.73;;;9.23;;
10333;SDS011;5212;47.892;16.406;2024-02-28T08:01:44;17.67;;;10.20;;
10333;SDS011;5212;47.892;16.406;2024-02-28T08:04:11;14.27;;;8.83;;
10333;SDS011;5212;47.892;16.406;2024-02-28T08:06:37;18.80;;;10.30;;
10333;SDS011;5212;47.892;16.406;2024-02-28T08:09:05;14.57;;;8.60;;
10333;SDS011;5212;47.892;16.406;2024-02-28T08:11:31;17.73;;;10.30;;
10333;SDS011;5212;47.892;16.406;2024-02-28T08:13:57;15.10;;;9.10;;
10333;SDS011;5212;47.892;16.406;2024-02-28T08:16:23;16.13;;;8.77;;
10333;SDS011;5212;47.892;16.406;2024-02-28T08:18:49;12.03;;;8.70;;
10333;SDS011;5212;47.892;16.406;2024-02-28T08:21:15;14.07;;;8.93;;
10333;SDS011;5212;47.892;16.406;2024-02-28T08:23:43;15.40;;;9.80;;
10333;SDS011;5212;47.892;16.406;2024-02-28T08:26:09;14.23;;;8.77;;
10333;SDS011;5212;47.892;16.406;2024-02-28T08:28:35;15.97;;;9.27;;
10333;SDS011;5212;47.892;16.406;2024-02-28T08:31:01;15.40;;;8.93;;
10333;SDS011;5212;47.892;16.406;2024-02-28T08:33:27;15.47;;;8.97;;
10333;SDS011;5212;47.892;16.406;2024-02-28T08:35:53;14.10;;;8.27;;
10333;SDS011;5212;47.892;16.406;2024-02-28T08:38:20;13.93;;;8.73;;
10333;SDS011;5212;47.892;16.406;2024-02-28T08:40:46;18.00;;;9.73;;
10333;SDS011;5212;47.892;16.406;2024-02-28T08:43:12;14.67;;;8.63;;
10333;SDS011;5212;47.892;16.406;2024-02-28T08:45:38;17.33;;;9.10;;
10333;SDS011;5212;47.892;16.406;2024-02-28T08:48:04;15.67;;;8.70;;
10333;SDS011;5212;47.892;16.406;2024-02-28T08:50:30;15.50;;;9.63;;
10333;SDS011;5212;47.892;16.406;2024-02-28T08:52:56;14.43;;;9.27;;
10333;SDS011;5212;47.892;16.406;2024-02-28T08:55:23;16.83;;;9.67;;
10333;SDS011;5212;47.892;16.406;2024-02-28T08:57:49;17.73;;;9.97;;
10333;SDS011;5212;47.892;16.406;2024-02-28T09:00:15;19.20;;;10.17;;
10333;SDS011;5212;47.892;16.406;2024-02-28T09:02:42;18.63;;;9.70;;
10333;SDS011;5212;47.892;16.406;2024-02-28T09:05:08;14.77;;;8.87;;
10333;SDS011;5212;47.892;16.406;2024-02-28T09:07:34;15.30;;;8.40;;
10333;SDS011;5212;47.892;16.406;2024-02-28T09:10:01;17.07;;;9.83;;
10333;SDS011;5212;47.892;16.406;2024-02-28T09:12:27;18.23;;;9.93;;
10333;SDS011;5212;47.892;16.406;2024-02-28T09:14:53;17.57;;;9.53;;
10333;SDS011;5212;47.892;16.406;2024-02-28T09:17:21;18.70;;;10.03;;
10333;SDS011;5212;47.892;16.406;2024-02-28T09:19:47;19.33;;;10.33;;
10333;SDS011;5212;47.892;16.406;2024-02-28T09:22:13;13.13;;;7.87;;
10333;SDS011;5212;47.892;16.406;2024-02-28T09:24:40;13.97;;;8.83;;
10333;SDS011;5212;47.892;16.406;2024-02-28T09:27:06;15.97;;;9.57;;
10333;SDS011;5212;47.892;16.406;2024-02-28T09:29:33;16.77;;;9.03;;
10333;SDS011;5212;47.892;16.406;2024-02-28T09:31:59;15.73;;;8.70;;
10333;SDS011;5212;47.892;16.406;2024-02-28T09:34:25;15.10;;;8.57;;
10333;SDS011;5212;47.892;16.406;2024-02-28T09:36:51;14.53;;;8.70;;
10333;SDS011;5212;47.892;16.406;2024-02-28T09:39:17;17.90;;;9.83;;
10333;SDS011;5212;47.892;16.406;2024-02-28T09:41:43;16.40;;;9.20;;
10333;SDS011;5212;47.892;16.406;2024-02-28T09:44:09;18.03;;;10.67;;
10333;SDS011;5212;47.892;16.406;2024-02-28T09:46:36;14.93;;;8.53;;
10333;SDS011;5212;47.892;16.406;2024-02-28T09:49:03;15.27;;;8.90;;
10333;SDS011;5212;47.892;16.406;2024-02-28T09:51:30;13.93;;;8.00;;
10333;SDS011;5212;47.892;16.406;2024-02-28T09:53:57;13.63;;;8.87;;
10333;SDS011;5212;47.892;16.406;2024-02-28T09:56:25;14.37;;;8.67;;
10333;SDS011;5212;47.892;16.406;2024-02-28T09:58:51;14.17;;;8.37;;
10333;SDS011;5212;47.892;16.406;2024-02-28T10:01:18;14.57;;;8.67;;
10333;SDS011;5212;47.892;16.406;2024-02-28T10:03:46;14.23;;;8.27;;
10333;SDS011;5212;47.892;16.406;2024-02-28T10:06:13;13.13;;;8.13;;
10333;SDS011;5212;47.892;16.406;2024-02-28T10:08:40;13.80;;;8.80;;
10333;SDS011;5212;47.892;16.406;2024-02-28T10:11:06;16.53;;;7.90;;
10333;SDS011;5212;47.892;16.406;2024-02-28T10:13:32;15.90;;;9.07;;
10333;SDS011;5212;47.892;16.406;2024-02-28T10:15:58;15.47;;;8.70;;
10333;SDS011;5212;47.892;16.406;2024-02-28T10:18:25;17.20;;;9.03;;
10333;SDS011;5212;47.892;16.406;2024-02-28T10:20:52;16.17;;;9.17;;
10333;SDS011;5212;47.892;16.406;2024-02-28T10:23:18;13.57;;;8.00;;
10333;SDS011;5212;47.892;16.406;2024-02-28T10:25:44;13.43;;;8.57;;
10333;SDS011;5212;47.892;16.406;2024-02-28T10:28:10;17.40;;;7.87;;
10333;SDS011;5212;47.892;16.406;2024-02-28T10:30:38;14.50;;;8.23;;
10333;SDS011;5212;47.892;16.406;2024-02-28T10:33:05;14.07;;;8.50;;
10333;SDS011;5212;47.892;16.406;2024-02-28T10:35:34;14.90;;;8.50;;
10333;SDS011;5212;47.892;16.406;2024-02-28T10:38:02;14.33;;;7.63;;
10333;SDS011;5212;47.892;16.406;2024-02-28T10:40:28;17.30;;;9.70;;
10333;SDS011;5212;47.892;16.406;2024-02-28T10:42:54;14.27;;;8.33;;
10333;SDS011;5212;47.892;16.406;2024-02-28T10:45:21;14.33;;;8.57;;
10333;SDS011;5212;47.892;16.406;2024-02-28T10:47:50;15.23;;;9.10;;
10333;SDS011;5212;47.892;16.406;2024-02-28T10:50:16;14.80;;;8.90;;
10333;SDS011;5212;47.892;16.406;2024-02-28T10:52:43;18.63;;;9.43;;
10333;SDS011;5212;47.892;16.406;2024-02-28T10:55:12;14.73;;;9.00;;
10333;SDS011;5212;47.892;16.406;2024-02-28T10:57:39;18.10;;;9.23;;
10333;SDS011;5212;47.892;16.406;2024-02-28T11:00:06;16.90;;;9.37;;
10333;SDS011;5212;47.892;16.406;2024-02-28T11:02:33;16.80;;;9.73;;
10333;SDS011;5212;47.892;16.406;2024-02-28T11:05:00;17.00;;;10.00;;
10333;SDS011;5212;47.892;16.406;2024-02-28T11:07:26;15.60;;;8.90;;
10333;SDS011;5212;47.892;16.406;2024-02-28T11:09:53;16.63;;;9.77;;
10333;SDS011;5212;47.892;16.406;2024-02-28T11:12:27;15.30;;;9.67;;
10333;SDS011;5212;47.892;16.406;2024-02-28T11:14:57;15.90;;;8.00;;
10333;SDS011;5212;47.892;16.406;2024-02-28T11:17:26;16.43;;;8.90;;
10333;SDS011;5212;47.892;16.406;2024-02-28T11:19:52;13.83;;;9.00;;
10333;SDS011;5212;47.892;16.406;2024-02-28T11:22:18;15.00;;;8.53;;
10333;SDS011;5212;47.892;16.406;2024-02-28T11:24:46;15.60;;;8.90;;
10333;SDS011;5212;47.892;16.406;2024-02-28T11:27:12;14.37;;;8.57;;
10333;SDS011;5212;47.892;16.406;2024-02-28T11:29:39;16.17;;;8.83;;
10333;SDS011;5212;47.892;16.406;2024-02-28T11:32:06;13.90;;;8.57;;
10333;SDS011;5212;47.892;16.406;2024-02-28T11:34:33;15.67;;;8.40;;
10333;SDS011;5212;47.892;16.406;2024-02-28T11:36:59;14.53;;;9.40;;
10333;SDS011;5212;47.892;16.406;2024-02-28T11:39:25;15.17;;;8.10;;
10333;SDS011;5212;47.892;16.406;2024-02-28T11:41:51;12.03;;;7.73;;
10333;SDS011;5212;47.892;16.406;2024-02-28T11:44:18;11.03;;;6.50;;
10333;SDS011;5212;47.892;16.406;2024-02-28T11:46:45;16.67;;;9.07;;
10333;SDS011;5212;47.892;16.406;2024-02-28T11:49:11;14.23;;;8.77;;
10333;SDS011;5212;47.892;16.406;2024-02-28T11:51:37;13.57;;;8.40;;
10333;SDS011;5212;47.892;16.406;2024-02-28T11:54:05;12.97;;;8.23;;
10333;SDS011;5212;47.892;16.406;2024-02-28T11:56:33;15.40;;;8.83;;
10333;SDS011;5212;47.892;16.406;2024-02-28T11:58:59;16.33;;;8.73;;
10333;SDS011;5212;47.892;16.406;2024-02-28T12:01:34;14.30;;;8.37;;
10333;SDS011;5212;47.892;16.406;2024-02-28T12:04:02;15.63;;;9.20;;
10333;SDS011;5212;47.892;16.406;2024-02-28T12:06:29;14.20;;;8.30;;
10333;SDS011;5212;47.892;16.406;2024-02-28T12:08:55;11.90;;;7.27;;
10333;SDS011;5212;47.892;16.406;2024-02-28T12:11:23;14.87;;;8.80;;
10333;SDS011;5212;47.892;16.406;2024-02-28T12:13:52;14.10;;;8.47;;
10333;SDS011;5212;47.892;16.406;2024-02-28T12:16:21;12.57;;;8.33;;
10333;SDS011;5212;47.892;16.406;2024-02-28T12:18:48;13.07;;;7.93;;
10333;SDS011;5212;47.892;16.406;2024-02-28T12:21:14;15.57;;;8.63;;
10333;SDS011;5212;47.892;16.406;2024-02-28T12:23:40;14.97;;;8.80;;
10333;SDS011;5212;47.892;16.406;2024-02-28T12:26:06;13.83;;;8.33;;
10333;SDS011;5212;47.892;16.406;2024-02-28T12:28:32;13.67;;;8.77;;
10333;SDS011;5212;47.892;16.406;2024-02-28T12:30:59;15.27;;;8.83;;
10333;SDS011;5212;47.892;16.406;2024-02-28T12:33:25;13.83;;;8.47;;
10333;SDS011;5212;47.892;16.406;2024-02-28T12:35:51;14.00;;;8.23;;
10333;SDS011;5212;47.892;16.406;2024-02-28T12:38:18;14.30;;;8.60;;
10333;SDS011;5212;47.892;16.406;2024-02-28T12:40:45;15.47;;;8.33;;
10333;SDS011;5212;47.892;16.406;2024-02-28T12:43:11;16.90;;;8.87;;
10333;SDS011;5212;47.892;16.406;2024-02-28T12:45:37;15.07;;;8.83;;
10333;SDS011;5212;47.892;16.406;2024-02-28T12:48:03;14.63;;;8.50;;
10333;SDS011;5212;47.892;16.406;2024-02-28T12:50:31;16.97;;;9.57;;
10333;SDS011;5212;47.892;16.406;2024-02-28T12:52:58;16.43;;;9.43;;
10333;SDS011;5212;47.892;16.406;2024-02-28T12:55:26;12.57;;;8.13;;
10333;SDS011;5212;47.892;16.406;2024-02-28T12:57:52;14.67;;;9.03;;
10333;SDS011;5212;47.892;16.406;2024-02-28T13:00:18;13.57;;;8.77;;
10333;SDS011;5212;47.892;16.406;2024-02-28T13:02:44;16.50;;;8.27;;
10333;SDS011;5212;47.892;16.406;2024-02-28T13:05:10;15.40;;;8.87;;
10333;SDS011;5212;47.892;16.406;2024-02-28T13:07:38;14.00;;;9.00;;
10333;SDS011;5212;47.892;16.406;2024-02-28T13:10:04;15.83;;;9.33;;
10333;SDS011;5212;47.892;16.406;2024-02-28T13:12:32;14.33;;;8.30;;
10333;SDS011;5212;47.892;16.406;2024-02-28T13:14:58;14.27;;;8.50;;
10333;SDS011;5212;47.892;16.406;2024-02-28T13:17:24;15.60;;;9.10;;
10333;SDS011;5212;47.892;16.406;2024-02-28T13:19:50;14.30;;;8.63;;
10333;SDS011;5212;47.892;16.406;2024-02-28T13:22:17;15.33;;;9.07;;
10333;SDS011;5212;47.892;16.406;2024-02-28T13:24:43;14.37;;;8.70;;
10333;SDS011;5212;47.892;16.406;2024-02-28T13:27:09;13.23;;;7.60;;
10333;SDS011;5212;47.892;16.406;2024-02-28T13:29:35;14.07;;;7.33;;
10333;SDS011;5212;47.892;16.406;2024-02-28T13:32:01;14.17;;;8.43;;
10333;SDS011;5212;47.892;16.406;2024-02-28T13:34:28;15.27;;;8.70;;
10333;SDS011;5212;47.892;16.406;2024-02-28T13:36:54;14.23;;;8.47;;
10333;SDS011;5212;47.892;16.406;2024-02-28T13:39:21;14.17;;;8.40;;
10333;SDS011;5212;47.892;16.406;2024-02-28T13:41:48;12.57;;;7.60;;
10333;SDS011;5212;47.892;16.406;2024-02-28T13:44:16;14.67;;;8.10;;
10333;SDS011;5212;47.892;16.406;2024-02-28T13:46:43;12.37;;;7.53;;
10333;SDS011;5212;47.892;16.406;2024-02-28T13:49:09;17.30;;;9.10;;
10333;SDS011;5212;47.892;16.406;2024-02-28T13:51:35;12.77;;;8.10;;
10333;SDS011;5212;47.892;16.406;2024-02-28T13:54:01;18.03;;;8.90;;
10333;SDS011;5212;47.892;16.406;2024-02-28T13:56:27;13.87;;;7.60;;
10333;SDS011;5212;47.892;16.406;2024-02-28T13:58:54;15.57;;;8.63;;
10333;SDS011;5212;47.892;16.406;2024-02-28T14:01:21;14.00;;;7.37;;
10333;SDS011;5212;47.892;16.406;2024-02-28T14:03:48;16.40;;;8.10;;
10333;SDS011;5212;47.892;16.406;2024-02-28T14:06:14;13.93;;;7.93;;
10333;SDS011;5212;47.892;16.406;2024-02-28T14:08:40;11.63;;;7.27;;
10333;SDS011;5212;47.892;16.406;2024-02-28T14:11:06;12.93;;;6.90;;
10333;SDS011;5212;47.892;16.406;2024-02-28T14:13:32;13.87;;;7.87;;
10333;SDS011;5212;47.892;16.406;2024-02-28T14:15:58;14.93;;;7.80;;
10333;SDS011;5212;47.892;16.406;2024-02-28T14:18:24;15.50;;;8.27;;
10333;SDS011;5212;47.892;16.406;2024-02-28T14:20:51;14.10;;;8.13;;
10333;SDS011;5212;47.892;16.406;2024-02-28T14:23:17;16.20;;;7.67;;
10333;SDS011;5212;47.892;16.406;2024-02-28T14:25:43;12.50;;;7.03;;
10333;SDS011;5212;47.892;16.406;2024-02-28T14:28:09;15.57;;;8.40;;
10333;SDS011;5212;47.892;16.406;2024-02-28T14:30:35;15.13;;;8.53;;
10333;SDS011;5212;47.892;16.406;2024-02-28T14:33:01;16.37;;;8.57;;